createdAt,value
2019-01-24T00:00:02.811Z,76.07
2019-01-24T00:02:31.854Z,77.25
2019-01-24T00:05:00.580Z,77.20
2019-01-24T00:07:29.340Z,78.60
2019-01-24T00:09:58.168Z,79.03
2019-01-24T00:12:27.048Z,78.80
2019-01-24T00:14:55.774Z,79.47
2019-01-24T00:17:24.486Z,78.79
2019-01-24T00:19:53.183Z,79.44
2019-01-24T00:22:21.949Z,79.17
2019-01-24T00:24:51.005Z,76.72
2019-01-24T00:27:19.684Z,75.99
2019-01-24T00:29:48.396Z,77.30
2019-01-24T00:32:17.080Z,78.50
2019-01-24T00:34:45.771Z,77.90
2019-01-24T00:37:14.916Z,77.77
2019-01-24T00:39:43.691Z,78.86
2019-01-24T00:42:12.479Z,79.50
2019-01-24T00:44:41.154Z,78.45
2019-01-24T00:47:09.842Z,77.67
2019-01-24T00:49:38.605Z,77.08
2019-01-24T00:52:07.295Z,77.40
2019-01-24T00:54:36.499Z,76.91
2019-01-24T00:57:05.435Z,77.69
2019-01-24T00:59:34.134Z,77.95
2019-01-24T01:02:02.909Z,78.86
2019-01-24T01:04:31.595Z,78.80
2019-01-24T01:07:00.376Z,78.68
2019-01-24T01:09:29.387Z,78.22
2019-01-24T01:11:58.231Z,79.08
2019-01-24T01:14:27.116Z,77.94
2019-01-24T01:16:55.871Z,77.02
2019-01-24T01:19:25.134Z,77.03
2019-01-24T01:21:53.815Z,76.56
2019-01-24T01:24:22.582Z,76.64
2019-01-24T01:26:51.357Z,76.46
2019-01-24T01:29:20.360Z,75.94
2019-01-24T01:31:49.254Z,75.84
2019-01-24T01:34:18.343Z,75.86
2019-01-24T01:36:47.128Z,75.63
2019-01-24T01:39:15.827Z,75.79
2019-01-24T01:41:44.823Z,76.10
2019-01-24T01:44:13.531Z,76.08
2019-01-24T01:46:42.584Z,76.63
2019-01-24T01:49:11.583Z,76.48
2019-01-24T01:51:40.278Z,76.87
2019-01-24T01:54:09.052Z,76.37
2019-01-24T01:56:37.868Z,76.57
2019-01-24T01:59:06.625Z,76.93
2019-01-24T02:01:35.636Z,75.73
2019-01-24T02:04:04.619Z,76.45
2019-01-24T02:06:33.382Z,76.32
2019-01-24T02:09:02.421Z,77.11
2019-01-24T02:11:31.182Z,76.35
2019-01-24T02:14:00.021Z,75.91
2019-01-24T02:16:28.783Z,75.65
2019-01-24T02:18:57.516Z,76.74
2019-01-24T02:21:26.286Z,75.76
2019-01-24T02:23:55.131Z,76.24
2019-01-24T02:26:23.909Z,75.45
2019-01-24T02:28:52.656Z,74.74
2019-01-24T02:31:21.416Z,75.92
2019-01-24T02:33:50.123Z,76.24
2019-01-24T02:36:18.807Z,75.46
2019-01-24T02:38:47.648Z,76.00
2019-01-24T02:41:16.411Z,76.99
2019-01-24T02:43:45.207Z,76.53
2019-01-24T02:46:13.971Z,77.21
2019-01-24T02:48:42.659Z,76.99
2019-01-24T02:51:11.916Z,77.31
2019-01-24T02:53:40.677Z,77.42
2019-01-24T02:56:09.500Z,78.18
2019-01-24T02:58:38.289Z,78.14
2019-01-24T03:01:07.043Z,78.14
2019-01-24T03:03:35.877Z,78.11
2019-01-24T03:06:04.638Z,77.77
2019-01-24T03:08:33.326Z,78.85
2019-01-24T03:11:02.092Z,78.57
2019-01-24T03:13:30.774Z,78.48
2019-01-24T03:15:59.560Z,78.15
2019-01-24T03:18:28.242Z,78.00
2019-01-24T03:20:57.068Z,78.81
2019-01-24T03:23:25.841Z,77.21
2019-01-24T03:25:54.529Z,76.90
2019-01-24T03:28:23.320Z,77.44
2019-01-24T03:30:52.105Z,77.10
2019-01-24T03:33:20.827Z,77.65
2019-01-24T03:35:49.628Z,78.22
2019-01-24T03:38:18.702Z,78.20
2019-01-24T03:40:47.476Z,79.62
2019-01-24T03:43:16.154Z,78.25
2019-01-24T03:45:44.843Z,78.10
2019-01-24T03:48:13.555Z,77.82
2019-01-24T03:50:42.344Z,77.19
2019-01-24T03:53:11.121Z,76.92
2019-01-24T03:55:39.812Z,77.91
2019-01-24T03:58:08.569Z,77.50
2019-01-24T04:00:37.341Z,77.72
2019-01-24T04:03:06.247Z,77.61
2019-01-24T04:05:35.043Z,77.71
2019-01-24T04:08:03.891Z,77.62
2019-01-24T04:10:32.653Z,77.59
2019-01-24T04:13:01.335Z,77.15
2019-01-24T04:15:30.198Z,77.61
2019-01-24T04:17:58.983Z,77.55
2019-01-24T04:20:28.064Z,78.38
2019-01-24T04:22:56.759Z,78.43
2019-01-24T04:25:25.950Z,77.56
2019-01-24T04:27:54.723Z,77.38
2019-01-24T04:30:24.102Z,78.46
2019-01-24T04:32:53.203Z,77.55
2019-01-24T04:35:22.500Z,77.83
2019-01-24T04:37:51.330Z,78.55
2019-01-24T04:40:20.794Z,77.62
2019-01-24T04:42:49.583Z,76.98
2019-01-24T04:45:18.591Z,76.52
2019-01-24T04:47:47.399Z,77.18
2019-01-24T04:50:17.192Z,76.76
2019-01-24T04:52:45.988Z,75.97
2019-01-24T04:55:16.809Z,76.04
2019-01-24T04:57:45.589Z,76.49
2019-01-24T05:00:19.992Z,76.54
2019-01-24T05:02:48.755Z,76.49
2019-01-24T05:05:17.622Z,76.38
2019-01-24T05:07:46.509Z,76.15
2019-01-24T05:10:15.285Z,76.18
2019-01-24T05:12:44.122Z,76.15
2019-01-24T05:15:13.505Z,77.01
2019-01-24T05:17:42.305Z,77.13
2019-01-24T05:20:12.024Z,76.81
2019-01-24T05:22:40.903Z,76.62
2019-01-24T05:25:11.877Z,76.54
2019-01-24T05:27:40.644Z,77.25
2019-01-24T05:30:16.604Z,76.59
2019-01-24T05:32:45.623Z,77.51
2019-01-24T05:35:14.494Z,77.87
2019-01-24T05:37:43.300Z,77.60
2019-01-24T05:40:12.140Z,76.10
2019-01-24T05:42:41.034Z,77.80
2019-01-24T05:45:10.672Z,77.85
2019-01-24T05:47:39.540Z,78.61
2019-01-24T05:50:09.447Z,77.09
2019-01-24T05:52:38.172Z,77.79
2019-01-24T05:55:07.671Z,77.67
2019-01-24T05:57:36.476Z,76.81
2019-01-24T06:00:07.883Z,76.48
2019-01-24T06:02:36.688Z,76.43
2019-01-24T06:05:07.043Z,76.52
2019-01-24T06:07:35.832Z,76.80
2019-01-24T06:10:06.016Z,76.23
2019-01-24T06:12:34.886Z,76.36
2019-01-24T06:15:03.852Z,75.95
2019-01-24T06:17:32.696Z,76.62
2019-01-24T06:20:01.512Z,76.62
2019-01-24T06:22:30.724Z,76.43
2019-01-24T06:24:59.879Z,76.83
2019-01-24T06:27:28.584Z,76.58
2019-01-24T06:29:57.280Z,77.14
2019-01-24T06:32:26.121Z,76.84
2019-01-24T06:34:55.015Z,76.92
2019-01-24T06:37:24.168Z,76.85
2019-01-24T06:39:52.960Z,76.80
2019-01-24T06:42:22.204Z,77.63
2019-01-24T06:44:50.922Z,76.49
2019-01-24T06:47:24.420Z,76.50
2019-01-24T06:49:53.224Z,76.29
2019-01-24T06:52:21.934Z,77.01
2019-01-24T06:54:50.661Z,76.45
2019-01-24T06:57:19.461Z,76.84
2019-01-24T06:59:48.355Z,76.89
2019-01-24T07:02:17.081Z,76.71
2019-01-24T07:04:45.803Z,76.78
2019-01-24T07:07:14.528Z,77.48
2019-01-24T07:09:43.384Z,77.34
2019-01-24T07:12:12.175Z,77.80
2019-01-24T07:14:40.931Z,76.84
2019-01-24T07:17:10.287Z,76.83
2019-01-24T07:19:39.065Z,76.90
2019-01-24T07:22:07.793Z,75.81
2019-01-24T07:24:36.590Z,76.17
2019-01-24T07:27:05.460Z,76.62
2019-01-24T07:29:34.230Z,77.30
2019-01-24T07:32:03.109Z,76.79
2019-01-24T07:34:31.899Z,75.83
2019-01-24T07:37:00.793Z,76.10
2019-01-24T07:39:29.607Z,76.11
2019-01-24T07:41:58.412Z,77.21
2019-01-24T07:44:27.211Z,76.01
2019-01-24T07:46:56.021Z,75.26
2019-01-24T07:49:24.954Z,75.14
2019-01-24T07:51:53.700Z,74.59
2019-01-24T07:54:22.561Z,73.26
2019-01-24T07:56:51.364Z,72.40
2019-01-24T07:59:20.196Z,72.22
2019-01-24T08:01:49.371Z,72.66
2019-01-24T08:04:18.207Z,72.25
2019-01-24T08:06:46.984Z,72.91
2019-01-24T08:09:15.796Z,73.18
2019-01-24T08:11:46.101Z,71.93
2019-01-24T08:14:14.889Z,72.40
2019-01-24T08:16:44.158Z,72.52
2019-01-24T08:19:13.015Z,73.14
2019-01-24T08:21:41.839Z,73.49
2019-01-24T08:24:11.021Z,73.97
2019-01-24T08:26:39.831Z,74.00
2019-01-24T08:29:08.677Z,75.38
2019-01-24T08:31:37.840Z,75.64
2019-01-24T08:34:06.552Z,75.30
2019-01-24T08:36:35.361Z,75.85
2019-01-24T08:39:06.507Z,76.26
2019-01-24T08:41:35.385Z,76.13
2019-01-24T08:44:04.250Z,75.58
2019-01-24T08:46:33.109Z,75.29
2019-01-24T08:49:01.937Z,75.18
2019-01-24T08:51:30.747Z,75.98
2019-01-24T08:53:59.647Z,77.49
2019-01-24T08:56:28.453Z,75.27
2019-01-24T08:58:57.438Z,74.04
2019-01-24T09:01:26.535Z,73.22
2019-01-24T09:03:55.264Z,72.75
2019-01-24T09:06:24.640Z,72.71
2019-01-24T09:08:53.443Z,72.70
2019-01-24T09:11:22.344Z,72.21
2019-01-24T09:13:51.203Z,71.90
2019-01-24T09:16:19.995Z,72.33
2019-01-24T09:18:48.756Z,72.29
2019-01-24T09:21:17.568Z,72.71
2019-01-24T09:23:46.416Z,71.99
2019-01-24T09:26:15.289Z,72.60
2019-01-24T09:28:44.084Z,72.63
2019-01-24T09:31:13.443Z,73.12
2019-01-24T09:33:42.377Z,73.02
2019-01-24T09:36:11.492Z,74.64
2019-01-24T09:38:40.553Z,73.33
2019-01-24T09:41:09.424Z,73.70
2019-01-24T09:43:38.368Z,73.72
2019-01-24T09:46:07.220Z,72.98
2019-01-24T09:48:37.382Z,72.32
2019-01-24T09:51:06.344Z,71.37
2019-01-24T09:53:35.118Z,71.05
2019-01-24T09:56:04.358Z,71.20
2019-01-24T09:58:33.510Z,70.41
2019-01-24T10:01:02.327Z,69.54
2019-01-24T10:03:31.048Z,69.99
2019-01-24T10:05:59.937Z,70.64
2019-01-24T10:08:29.143Z,68.18
2019-01-24T10:10:57.998Z,69.44
2019-01-24T10:13:26.712Z,72.00
2019-01-24T10:15:55.454Z,71.13
2019-01-24T10:18:24.432Z,72.97
2019-01-24T10:20:53.200Z,73.61
2019-01-24T10:23:21.983Z,74.83
2019-01-24T10:25:50.771Z,72.63
2019-01-24T10:28:19.578Z,74.09
2019-01-24T10:30:48.289Z,74.54
2019-01-24T10:33:17.143Z,73.62
2019-01-24T10:35:45.988Z,73.24
2019-01-24T10:38:14.836Z,73.45
2019-01-24T10:40:43.637Z,74.44
2019-01-24T10:43:12.512Z,73.57
2019-01-24T10:45:41.382Z,73.76
2019-01-24T10:48:10.591Z,74.28
2019-01-24T10:50:39.468Z,73.69
2019-01-24T10:53:08.757Z,73.41
2019-01-24T10:55:37.551Z,74.92
2019-01-24T10:58:07.514Z,74.42
2019-01-24T11:00:41.772Z,73.56
2019-01-24T11:03:15.778Z,73.20
2019-01-24T11:05:44.854Z,72.86
2019-01-24T11:08:13.744Z,72.33
2019-01-24T11:10:42.501Z,72.53
2019-01-24T11:13:11.427Z,71.73
2019-01-24T11:15:40.599Z,71.89
2019-01-24T11:18:09.392Z,70.90
2019-01-24T11:20:38.230Z,70.68
2019-01-24T11:23:07.010Z,69.98
2019-01-24T11:25:36.005Z,68.85
2019-01-24T11:28:05.046Z,69.07
2019-01-24T11:30:34.048Z,68.63
2019-01-24T11:33:02.826Z,68.13
2019-01-24T11:35:50.861Z,68.51
2019-01-24T11:38:19.860Z,68.51
2019-01-24T11:40:48.804Z,68.05
2019-01-24T11:43:17.638Z,67.69
2019-01-24T11:45:46.455Z,67.15
2019-01-24T11:48:15.306Z,67.75
2019-01-24T11:50:44.055Z,66.34
2019-01-24T11:53:12.881Z,66.34
2019-01-24T11:55:41.753Z,66.95
2019-01-24T11:58:10.561Z,66.25
2019-01-24T12:00:44.643Z,65.97
2019-01-24T12:03:13.453Z,67.86
2019-01-24T12:05:42.212Z,67.14
2019-01-24T12:08:11.032Z,66.86
2019-01-24T12:10:39.939Z,67.23
2019-01-24T12:13:08.902Z,65.33
2019-01-24T12:15:37.810Z,68.44
2019-01-24T12:18:06.650Z,66.59
2019-01-24T12:20:35.528Z,66.43
2019-01-24T12:23:04.539Z,65.70
2019-01-24T12:25:33.563Z,65.96
2019-01-24T12:28:02.730Z,67.04
2019-01-24T12:30:33.357Z,67.47
2019-01-24T12:33:02.544Z,66.57
2019-01-24T12:35:31.410Z,66.15
2019-01-24T12:38:00.260Z,69.52
2019-01-24T12:40:29.090Z,69.29
2019-01-24T12:42:58.139Z,66.80
2019-01-24T12:45:31.811Z,67.98
2019-01-24T12:48:00.746Z,66.01
2019-01-24T12:50:29.525Z,65.81
2019-01-24T12:52:58.458Z,63.80
2019-01-24T12:55:27.604Z,67.76
2019-01-24T12:57:56.454Z,67.65
2019-01-24T13:00:30.558Z,69.87
2019-01-24T13:02:59.412Z,68.58
2019-01-24T13:05:28.237Z,66.70
2019-01-24T13:07:57.222Z,68.61
2019-01-24T13:10:26.690Z,67.18
2019-01-24T13:12:55.616Z,68.09
2019-01-24T13:15:26.997Z,66.83
2019-01-24T13:17:55.889Z,67.21
2019-01-24T13:20:24.736Z,70.02
2019-01-24T13:22:53.679Z,69.38
2019-01-24T13:25:24.953Z,67.35
2019-01-24T13:27:53.877Z,66.83
2019-01-24T13:30:24.721Z,66.66
2019-01-24T13:32:53.654Z,65.14
2019-01-24T13:35:22.462Z,67.53
2019-01-24T13:37:51.420Z,67.19
2019-01-24T13:40:22.351Z,66.09
2019-01-24T13:42:51.593Z,62.88
2019-01-24T13:45:25.263Z,64.06
2019-01-24T13:47:54.076Z,64.86
2019-01-24T13:50:23.396Z,65.63
2019-01-24T13:52:52.745Z,65.66
2019-01-24T13:55:21.574Z,66.87
2019-01-24T13:57:50.476Z,67.34
2019-01-24T14:00:33.429Z,66.95
2019-01-24T14:03:08.891Z,67.67
2019-01-24T14:05:38.365Z,69.25
2019-01-24T14:08:07.172Z,67.95
2019-01-24T14:10:36.460Z,66.99
2019-01-24T14:13:05.321Z,67.11
2019-01-24T14:15:34.211Z,67.45
2019-01-24T14:18:03.023Z,65.87
2019-01-24T14:20:31.904Z,65.56
2019-01-24T14:23:00.656Z,66.54
2019-01-24T14:25:29.792Z,66.12
2019-01-24T14:27:58.618Z,67.17
2019-01-24T14:30:27.543Z,67.31
2019-01-24T14:32:56.495Z,67.00
2019-01-24T14:35:25.337Z,66.76
2019-01-24T14:37:54.234Z,64.76
2019-01-24T14:40:23.100Z,66.88
2019-01-24T14:42:51.935Z,65.18
2019-01-24T14:45:22.450Z,64.60
2019-01-24T14:47:51.435Z,65.68
2019-01-24T14:50:22.339Z,66.47
2019-01-24T14:52:51.280Z,67.87
2019-01-24T14:55:20.257Z,68.05
2019-01-24T14:57:49.432Z,68.46
2019-01-24T15:00:43.761Z,67.38
2019-01-24T15:03:12.732Z,68.66
2019-01-24T15:05:41.746Z,66.88
2019-01-24T15:08:10.589Z,65.59
2019-01-24T15:10:40.018Z,66.04
2019-01-24T15:13:08.848Z,64.95
2019-01-24T15:15:37.890Z,66.85
2019-01-24T15:18:06.763Z,67.11
2019-01-24T15:20:36.249Z,69.43
2019-01-24T15:23:05.231Z,67.35
2019-01-24T15:25:34.135Z,68.29
2019-01-24T15:28:02.943Z,67.28
2019-01-24T15:30:32.256Z,68.58
2019-01-24T15:33:01.124Z,68.72
2019-01-24T15:35:30.041Z,68.70
2019-01-24T15:37:58.818Z,68.87
2019-01-24T15:40:29.662Z,69.79
2019-01-24T15:42:58.584Z,69.38
2019-01-24T15:45:27.552Z,69.86
2019-01-24T15:47:56.642Z,70.52
2019-01-24T15:50:25.591Z,70.26
2019-01-24T15:52:54.592Z,69.14
2019-01-24T15:55:23.562Z,69.96
2019-01-24T15:57:56.283Z,68.65
2019-01-24T16:00:27.566Z,69.22
2019-01-24T16:02:56.468Z,69.30
2019-01-24T16:05:25.418Z,71.18
2019-01-24T16:08:01.286Z,70.05
2019-01-24T16:10:25.416Z,69.71
2019-01-24T16:12:54.602Z,70.07
2019-01-24T16:15:32.147Z,70.03
2019-01-24T16:18:00.991Z,70.25
2019-01-24T16:20:30.245Z,69.89
2019-01-24T16:22:59.267Z,69.43
2019-01-24T16:25:29.517Z,71.30
2019-01-24T16:27:58.765Z,73.12
2019-01-24T16:30:29.504Z,73.61
2019-01-24T16:32:58.306Z,73.93
2019-01-24T16:35:32.083Z,72.30
2019-01-24T16:38:00.903Z,74.45
2019-01-24T16:40:30.711Z,74.19
2019-01-24T16:42:59.775Z,73.58
2019-01-24T16:45:29.788Z,75.47
2019-01-24T16:47:58.735Z,74.78
2019-01-24T16:50:28.201Z,74.86
2019-01-24T16:52:57.333Z,74.44
2019-01-24T16:55:27.728Z,74.38
2019-01-24T16:57:56.752Z,74.76
2019-01-24T17:00:43.994Z,75.67
2019-01-24T17:03:12.938Z,74.37
2019-01-24T17:05:42.030Z,77.81
2019-01-24T17:08:16.466Z,77.27
2019-01-24T17:10:41.918Z,76.35
2019-01-24T17:13:10.964Z,78.19
2019-01-24T17:15:39.964Z,77.62
2019-01-24T17:18:08.780Z,77.25
2019-01-24T17:20:37.499Z,77.35
2019-01-24T17:23:07.114Z,77.51
2019-01-24T17:25:35.901Z,76.79
2019-01-24T17:28:05.315Z,77.39
2019-01-24T17:30:38.577Z,78.49
2019-01-24T17:33:08.430Z,78.31
2019-01-24T17:35:38.327Z,77.60
2019-01-24T17:38:07.137Z,77.61
2019-01-24T17:40:36.238Z,77.70
2019-01-24T17:43:05.791Z,77.60
2019-01-24T17:45:34.777Z,77.64
2019-01-24T17:48:04.088Z,78.39
2019-01-24T17:50:32.904Z,77.81
2019-01-24T17:53:01.875Z,78.62
2019-01-24T17:55:36.197Z,78.75
2019-01-24T17:58:07.313Z,79.56
2019-01-24T18:00:37.884Z,78.74
2019-01-24T18:03:06.857Z,79.00
2019-01-24T18:05:35.734Z,79.05
2019-01-24T18:08:04.924Z,80.03
2019-01-24T18:10:34.611Z,79.68
2019-01-24T18:13:03.796Z,80.83
2019-01-24T18:15:32.900Z,80.00
2019-01-24T18:18:02.381Z,79.96
2019-01-24T18:20:32.572Z,80.11
2019-01-24T18:23:01.842Z,79.04
2019-01-24T18:25:30.755Z,80.28
2019-01-24T18:27:59.650Z,79.56
2019-01-24T18:30:30.404Z,79.35
2019-01-24T18:32:59.396Z,79.09
2019-01-24T18:35:28.622Z,78.89
2019-01-24T18:37:57.468Z,79.04
2019-01-24T18:40:27.546Z,78.30
2019-01-24T18:42:56.832Z,78.00
2019-01-24T18:45:28.643Z,77.80
2019-01-24T18:47:57.509Z,77.46
2019-01-24T18:50:26.290Z,79.01
2019-01-24T18:52:55.053Z,78.54
2019-01-24T18:55:24.195Z,78.07
2019-01-24T18:57:52.990Z,78.26
2019-01-24T19:00:40.207Z,79.47
2019-01-24T19:03:09.889Z,78.73
2019-01-24T19:05:39.409Z,79.65
2019-01-24T19:08:08.493Z,79.87
2019-01-24T19:10:37.363Z,80.42
2019-01-24T19:13:08.890Z,79.95
2019-01-24T19:15:38.249Z,80.91
2019-01-24T19:18:09.805Z,83.12
2019-01-24T19:20:38.651Z,81.97
2019-01-24T19:23:07.491Z,82.98
2019-01-24T19:25:36.393Z,83.51
2019-01-24T19:28:06.565Z,82.20
2019-01-24T19:30:35.451Z,82.11
2019-01-24T19:33:04.986Z,81.28
2019-01-24T19:35:33.780Z,81.52
2019-01-24T19:38:03.551Z,81.53
2019-01-24T19:40:32.661Z,81.08
2019-01-24T19:43:01.431Z,81.07
2019-01-24T19:45:30.285Z,80.98
2019-01-24T19:47:59.073Z,80.51
2019-01-24T19:50:29.403Z,81.63
2019-01-24T19:52:58.886Z,81.56
2019-01-24T19:55:28.257Z,81.15
2019-01-24T19:57:57.552Z,81.31
2019-01-24T20:00:28.504Z,80.94
2019-01-24T20:02:57.546Z,81.49
2019-01-24T20:05:26.806Z,81.83
2019-01-24T20:07:55.857Z,81.82
2019-01-24T20:10:26.499Z,81.61
2019-01-24T20:12:55.395Z,81.80
2019-01-24T20:15:26.895Z,82.83
2019-01-24T20:17:55.941Z,84.11
2019-01-24T20:20:25.048Z,83.73
2019-01-24T20:22:54.595Z,84.19
2019-01-24T20:25:25.683Z,83.25
2019-01-24T20:27:54.732Z,83.78
2019-01-24T20:30:25.170Z,83.73
2019-01-24T20:32:54.195Z,83.78
2019-01-24T20:35:53.198Z,82.91
2019-01-24T20:38:22.006Z,82.75
2019-01-24T20:40:50.826Z,82.73
2019-01-24T20:43:19.796Z,83.17
2019-01-24T20:45:48.713Z,82.69
2019-01-24T20:48:17.528Z,83.18
2019-01-24T20:50:46.331Z,82.39
2019-01-24T20:53:15.236Z,82.29
2019-01-24T20:55:44.031Z,82.78
2019-01-24T20:58:12.895Z,83.08
2019-01-24T21:00:41.816Z,81.42
2019-01-24T21:03:10.763Z,81.24
2019-01-24T21:05:39.581Z,81.24
2019-01-24T21:08:08.381Z,81.86
2019-01-24T21:10:37.170Z,83.14
2019-01-24T21:13:06.054Z,82.98
2019-01-24T21:15:34.785Z,82.87
2019-01-24T21:18:03.714Z,82.66
2019-01-24T21:20:32.534Z,82.76
2019-01-24T21:23:01.330Z,83.36
2019-01-24T21:25:30.276Z,83.96
2019-01-24T21:27:59.123Z,83.78
2019-01-24T21:30:33.115Z,83.61
2019-01-24T21:33:02.051Z,83.73
2019-01-24T21:35:31.022Z,84.10
2019-01-24T21:37:59.833Z,84.11
2019-01-24T21:40:28.709Z,84.13
2019-01-24T21:42:58.450Z,84.32
2019-01-24T21:45:29.241Z,84.04
2019-01-24T21:47:58.151Z,84.10
2019-01-24T21:50:27.719Z,83.15
2019-01-24T21:52:56.632Z,82.92
2019-01-24T21:55:25.466Z,83.22
2019-01-24T21:57:54.423Z,83.26
2019-01-24T22:00:24.606Z,83.22
2019-01-24T22:02:53.529Z,82.63
2019-01-24T22:05:23.043Z,85.11
2019-01-24T22:07:52.518Z,85.12
2019-01-24T22:10:23.469Z,85.53
2019-01-24T22:12:52.330Z,85.85
2019-01-24T22:15:23.092Z,85.81
2019-01-24T22:17:51.901Z,85.76
2019-01-24T22:20:20.981Z,85.76
2019-01-24T22:22:49.881Z,85.40
2019-01-24T22:25:20.991Z,85.96
2019-01-24T22:27:49.882Z,86.26
2019-01-24T22:30:21.710Z,87.07
2019-01-24T22:32:50.535Z,87.75
2019-01-24T22:35:19.740Z,88.03
2019-01-24T22:37:48.612Z,89.17
2019-01-24T22:40:17.742Z,89.91
2019-01-24T22:42:46.767Z,89.57
2019-01-24T22:45:18.299Z,89.91
2019-01-24T22:47:47.160Z,90.05
2019-01-24T22:50:16.299Z,90.16
2019-01-24T22:52:45.138Z,90.06
2019-01-24T22:55:14.271Z,90.10
2019-01-24T22:57:43.137Z,90.42
2019-01-24T23:00:55.170Z,90.25
2019-01-24T23:03:45.301Z,89.99
2019-01-24T23:06:14.095Z,90.38
2019-01-24T23:08:42.904Z,90.58
2019-01-24T23:11:11.808Z,90.14
2019-01-24T23:13:40.590Z,90.60
2019-01-24T23:16:09.777Z,90.73
2019-01-24T23:18:38.565Z,90.75
2019-01-24T23:21:07.367Z,90.82
2019-01-24T23:23:36.430Z,90.89
2019-01-24T23:26:05.530Z,90.91
2019-01-24T23:28:35.360Z,91.32
2019-01-24T23:31:04.572Z,92.03
2019-01-24T23:33:33.302Z,91.76
2019-01-24T23:36:02.185Z,91.52
2019-01-24T23:38:30.987Z,91.69
2019-01-24T23:40:59.824Z,90.73
2019-01-24T23:43:28.702Z,89.83
2019-01-24T23:45:58.074Z,89.16
2019-01-24T23:48:27.264Z,88.48
2019-01-24T23:50:56.062Z,88.23
2019-01-24T23:53:24.868Z,87.67
2019-01-24T23:55:53.623Z,87.50
2019-01-24T23:58:22.892Z,87.62
